createdAt,value
2023-06-30T00:00:18.201Z,2399.00
2023-06-30T00:01:18.296Z,2398.00
2023-06-30T00:02:18.403Z,2380.00
2023-06-30T00:03:18.559Z,2392.00
2023-06-30T00:04:18.465Z,2397.00
2023-06-30T00:05:18.507Z,2389.00
2023-06-30T00:06:18.544Z,2387.00
2023-06-30T00:07:18.642Z,2391.00
2023-06-30T00:08:18.643Z,2378.00
2023-06-30T00:09:18.705Z,2381.00
2023-06-30T00:10:18.761Z,2384.00
2023-06-30T00:11:18.813Z,2383.00
2023-06-30T00:12:18.853Z,2371.00
2023-06-30T00:13:18.893Z,2374.00
2023-06-30T00:14:18.940Z,2379.00
2023-06-30T00:15:19.021Z,2381.00
2023-06-30T00:16:19.096Z,2392.00
2023-06-30T00:17:19.155Z,2385.00
2023-06-30T00:18:19.191Z,2371.00
2023-06-30T00:19:19.208Z,2362.00
2023-06-30T00:20:19.301Z,2363.00
2023-06-30T00:21:19.350Z,2370.00
2023-06-30T00:22:19.377Z,2373.00
2023-06-30T00:23:19.433Z,2371.00
2023-06-30T00:24:19.432Z,2374.00
2023-06-30T00:25:19.487Z,2373.00
2023-06-30T00:26:19.499Z,2351.00
2023-06-30T00:27:19.554Z,2360.00
2023-06-30T00:28:19.620Z,2368.00
2023-06-30T00:29:19.688Z,2356.00
2023-06-30T00:30:19.731Z,2363.00
2023-06-30T00:31:19.860Z,2360.00
2023-06-30T00:32:19.934Z,2357.00
2023-06-30T00:33:19.947Z,2354.00
2023-06-30T00:34:19.991Z,2364.00
2023-06-30T00:35:20.040Z,2361.00
2023-06-30T00:36:20.042Z,2360.00
2023-06-30T00:37:20.133Z,2347.00
2023-06-30T00:38:20.213Z,2364.00
2023-06-30T00:39:20.210Z,2357.00
2023-06-30T00:40:20.254Z,2378.00
2023-06-30T00:41:20.323Z,2366.00
2023-06-30T00:42:20.365Z,2351.00
2023-06-30T00:43:20.437Z,2350.00
2023-06-30T00:44:20.434Z,2364.00
2023-06-30T00:45:20.498Z,2362.00
2023-06-30T00:46:20.503Z,2360.00
2023-06-30T00:47:20.603Z,2361.00
2023-06-30T00:48:20.623Z,2367.00
2023-06-30T00:49:20.621Z,2357.00
2023-06-30T00:50:20.656Z,2357.00
2023-06-30T00:51:20.759Z,2356.00
2023-06-30T00:52:20.793Z,2368.00
2023-06-30T00:53:20.862Z,2340.00
2023-06-30T00:54:20.901Z,2367.00
2023-06-30T00:55:20.930Z,2362.00
2023-06-30T00:56:20.986Z,2355.00
2023-06-30T00:57:21.040Z,2341.00
2023-06-30T00:58:21.102Z,2361.00
2023-06-30T00:59:21.169Z,2363.00
2023-06-30T01:00:21.244Z,2356.00
2023-06-30T01:01:21.354Z,2356.00
2023-06-30T01:02:21.350Z,2340.00
2023-06-30T01:03:21.505Z,2342.00
2023-06-30T01:04:21.515Z,2342.00
2023-06-30T01:05:21.490Z,2335.00
2023-06-30T01:06:21.572Z,2363.00
2023-06-30T01:07:21.667Z,2333.00
2023-06-30T01:08:21.658Z,2353.00
2023-06-30T01:09:21.687Z,2332.00
2023-06-30T01:10:21.733Z,2337.00
2023-06-30T01:11:21.802Z,2332.00
2023-06-30T01:12:21.855Z,2340.00
2023-06-30T01:13:21.894Z,2329.00
2023-06-30T01:14:21.912Z,2327.00
2023-06-30T01:15:21.961Z,2328.00
2023-06-30T01:16:22.088Z,2325.00
2023-06-30T01:17:22.121Z,2328.00
2023-06-30T01:18:22.129Z,2325.00
2023-06-30T01:19:22.143Z,2331.00
2023-06-30T01:20:22.228Z,2334.00
2023-06-30T01:21:22.311Z,2338.00
2023-06-30T01:22:23.168Z,2322.00
2023-06-30T01:23:22.357Z,2325.00
2023-06-30T01:24:22.449Z,2319.00
2023-06-30T01:25:22.488Z,2314.00
2023-06-30T01:26:22.578Z,2324.00
2023-06-30T01:27:22.569Z,2313.00
2023-06-30T01:28:22.570Z,2312.00
2023-06-30T01:29:22.654Z,2307.00
2023-06-30T01:30:22.697Z,2304.00
2023-06-30T01:31:22.754Z,2297.00
2023-06-30T01:32:22.834Z,2299.00
2023-06-30T01:33:22.851Z,2296.00
2023-06-30T01:34:22.858Z,2308.00
2023-06-30T01:35:22.936Z,2300.00
2023-06-30T01:36:22.985Z,2302.00
2023-06-30T01:37:23.016Z,2288.00
2023-06-30T01:38:23.075Z,2301.00
2023-06-30T01:39:23.115Z,2289.00
2023-06-30T01:40:23.198Z,2300.00
2023-06-30T01:41:23.230Z,2284.00
2023-06-30T01:42:23.340Z,2280.00
2023-06-30T01:43:23.342Z,2294.00
2023-06-30T01:44:23.391Z,2285.00
2023-06-30T01:45:23.492Z,2288.00
2023-06-30T01:46:23.563Z,2297.00
2023-06-30T01:47:23.583Z,2277.00
2023-06-30T01:48:23.599Z,2270.00
2023-06-30T01:49:23.685Z,2287.00
2023-06-30T01:50:23.714Z,2278.00
2023-06-30T01:51:23.766Z,2274.00
2023-06-30T01:52:23.799Z,2288.00
2023-06-30T01:53:23.851Z,2275.00
2023-06-30T01:54:23.873Z,2285.00
2023-06-30T01:55:23.916Z,2271.00
2023-06-30T01:56:23.989Z,2286.00
2023-06-30T01:57:24.035Z,2287.00
2023-06-30T01:58:24.088Z,2281.00
2023-06-30T01:59:24.147Z,2279.00
2023-06-30T02:00:24.169Z,2278.00
2023-06-30T02:01:24.265Z,2271.00
2023-06-30T02:02:24.357Z,2265.00
2023-06-30T02:03:24.493Z,2281.00
2023-06-30T02:04:24.323Z,2277.00
2023-06-30T02:05:24.428Z,2267.00
2023-06-30T02:06:24.442Z,2262.00
2023-06-30T02:07:24.611Z,2262.00
2023-06-30T02:08:24.589Z,2270.00
2023-06-30T02:09:30.925Z,2263.00
2023-06-30T02:10:25.594Z,2264.00
2023-06-30T02:11:24.597Z,2265.00
2023-06-30T02:12:24.591Z,2265.00
2023-06-30T02:13:24.544Z,2265.00
2023-06-30T02:14:24.566Z,2266.00
2023-06-30T02:15:24.579Z,2243.00
2023-06-30T02:16:24.584Z,2255.00
2023-06-30T02:17:24.589Z,2252.00
2023-06-30T02:18:24.567Z,2246.00
2023-06-30T02:19:24.611Z,2247.00
2023-06-30T02:20:24.631Z,2239.00
2023-06-30T02:21:24.647Z,2250.00
2023-06-30T02:22:24.687Z,2236.00
2023-06-30T02:23:24.766Z,2241.00
2023-06-30T02:24:24.807Z,2227.00
2023-06-30T02:25:24.862Z,2229.00
2023-06-30T02:26:24.869Z,2231.00
2023-06-30T02:27:24.985Z,2220.00
2023-06-30T02:28:25.009Z,2224.00
2023-06-30T02:29:25.058Z,2224.00
2023-06-30T02:30:25.099Z,2230.00
2023-06-30T02:31:25.204Z,2216.00
2023-06-30T02:32:25.343Z,2225.00
2023-06-30T02:33:25.290Z,2222.00
2023-06-30T02:34:25.301Z,2222.00
2023-06-30T02:35:25.446Z,2216.00
2023-06-30T02:36:25.405Z,2229.00
2023-06-30T02:37:25.514Z,2226.00
2023-06-30T02:38:25.537Z,2209.00
2023-06-30T02:39:25.605Z,2213.00
2023-06-30T02:40:25.657Z,2206.00
2023-06-30T02:41:25.720Z,2216.00
2023-06-30T02:42:25.824Z,2209.00
2023-06-30T02:43:25.837Z,2200.00
2023-06-30T02:44:25.942Z,2216.00
2023-06-30T02:45:25.950Z,2202.00
2023-06-30T02:46:26.129Z,2192.00
2023-06-30T02:47:26.117Z,2206.00
2023-06-30T02:48:26.151Z,2192.00
2023-06-30T02:49:26.188Z,2205.00
2023-06-30T02:50:26.280Z,2190.00
2023-06-30T02:51:26.330Z,2200.00
2023-06-30T02:52:26.384Z,2207.00
2023-06-30T02:53:26.439Z,2191.00
2023-06-30T02:54:26.507Z,2198.00
2023-06-30T02:55:26.583Z,2205.00
2023-06-30T02:56:26.618Z,2204.00
2023-06-30T02:57:26.683Z,2195.00
2023-06-30T02:58:26.788Z,2194.00
2023-06-30T02:59:26.789Z,2184.00
2023-06-30T03:00:26.808Z,2193.00
2023-06-30T03:01:26.921Z,2182.00
2023-06-30T03:02:27.162Z,2171.00
2023-06-30T03:03:27.034Z,2178.00
2023-06-30T03:04:27.085Z,2172.00
2023-06-30T03:05:27.016Z,2178.00
2023-06-30T03:06:27.096Z,2170.00
2023-06-30T03:07:27.175Z,2170.00
2023-06-30T03:08:27.200Z,2168.00
2023-06-30T03:09:27.249Z,2157.00
2023-06-30T03:10:27.327Z,2155.00
2023-06-30T03:11:27.378Z,2159.00
2023-06-30T03:12:27.413Z,2162.00
2023-06-30T03:13:27.468Z,2173.00
2023-06-30T03:14:27.514Z,2171.00
2023-06-30T03:15:27.562Z,2165.00
2023-06-30T03:16:27.690Z,2160.00
2023-06-30T03:17:27.736Z,2163.00
2023-06-30T03:18:27.732Z,2164.00
2023-06-30T03:19:27.745Z,2164.00
2023-06-30T03:20:27.807Z,2156.00
2023-06-30T03:21:27.875Z,2161.00
2023-06-30T03:22:27.900Z,2154.00
2023-06-30T03:23:27.956Z,2157.00
2023-06-30T03:24:27.993Z,2161.00
2023-06-30T03:25:28.045Z,2153.00
2023-06-30T03:26:28.057Z,2156.00
2023-06-30T03:27:28.103Z,2163.00
2023-06-30T03:28:28.131Z,2151.00
2023-06-30T03:29:28.198Z,2145.00
2023-06-30T03:30:28.285Z,2149.00
2023-06-30T03:31:28.378Z,2135.00
2023-06-30T03:32:28.357Z,2133.00
2023-06-30T03:33:28.375Z,2132.00
2023-06-30T03:34:28.456Z,2135.00
2023-06-30T03:35:28.492Z,2132.00
2023-06-30T03:36:28.484Z,2131.00
2023-06-30T03:37:28.542Z,2139.00
2023-06-30T03:38:28.589Z,2137.00
2023-06-30T03:39:28.618Z,2133.00
2023-06-30T03:40:28.715Z,2141.00
2023-06-30T03:41:28.718Z,2135.00
2023-06-30T03:42:28.717Z,2130.00
2023-06-30T03:43:28.830Z,2123.00
2023-06-30T03:44:28.868Z,2135.00
2023-06-30T03:45:28.899Z,2133.00
2023-06-30T03:46:29.026Z,2122.00
2023-06-30T03:47:29.082Z,2126.00
2023-06-30T03:48:29.086Z,2131.00
2023-06-30T03:49:29.133Z,2120.00
2023-06-30T03:50:29.201Z,2124.00
2023-06-30T03:51:29.259Z,2123.00
2023-06-30T03:52:29.300Z,2112.00
2023-06-30T03:53:29.366Z,2116.00
2023-06-30T03:54:29.438Z,2114.00
2023-06-30T03:55:29.498Z,2112.00
2023-06-30T03:56:29.548Z,2113.00
2023-06-30T03:57:29.606Z,2108.00
2023-06-30T03:58:29.645Z,2110.00
2023-06-30T03:59:29.722Z,2109.00
2023-06-30T04:00:29.759Z,2107.00
2023-06-30T04:01:29.783Z,2090.00
2023-06-30T04:02:29.903Z,2111.00
2023-06-30T04:03:30.084Z,2106.00
2023-06-30T04:04:30.034Z,2114.00
2023-06-30T04:05:30.002Z,2115.00
2023-06-30T04:06:30.083Z,2096.00
2023-06-30T04:07:30.262Z,2094.00
2023-06-30T04:08:30.342Z,2100.00
2023-06-30T04:09:30.237Z,2098.00
2023-06-30T04:10:30.319Z,2094.00
2023-06-30T04:11:30.354Z,2085.00
2023-06-30T04:12:30.409Z,2095.00
2023-06-30T04:13:30.507Z,2085.00
2023-06-30T07:45:56.168Z,500.00
2023-06-30T07:46:56.503Z,500.00
2023-06-30T07:47:56.208Z,500.00
2023-06-30T07:48:56.152Z,500.00
2023-06-30T07:49:56.090Z,500.00
2023-06-30T07:51:08.477Z,434.00
2023-06-30T07:51:57.075Z,400.00
2023-06-30T07:52:56.080Z,400.00
2023-06-30T07:53:56.071Z,400.00
2023-06-30T07:54:56.024Z,400.00
2023-06-30T07:55:56.030Z,400.00
2023-06-30T07:56:56.007Z,400.00
2023-06-30T07:57:56.059Z,400.00
2023-06-30T07:58:56.001Z,400.00
2023-06-30T07:59:58.429Z,400.00
2023-06-30T08:00:56.234Z,400.00
2023-06-30T08:01:56.255Z,400.00
2023-06-30T08:02:56.519Z,400.00
2023-06-30T08:03:56.547Z,400.00
2023-06-30T08:04:56.496Z,400.00
2023-06-30T08:05:56.568Z,400.00
2023-06-30T08:06:56.384Z,400.00
2023-06-30T08:07:56.588Z,400.00
2023-06-30T08:08:56.465Z,400.00
2023-06-30T08:09:56.505Z,400.00
2023-06-30T08:10:56.517Z,400.00
2023-06-30T08:11:56.561Z,400.00
2023-06-30T08:12:56.602Z,400.00
2023-06-30T08:13:56.617Z,400.00
2023-06-30T08:14:56.708Z,400.00
2023-06-30T08:15:56.893Z,426.00
2023-06-30T08:16:58.306Z,465.00
2023-06-30T08:17:57.064Z,461.00
2023-06-30T08:18:56.920Z,452.00
2023-06-30T08:19:56.981Z,434.00
2023-06-30T08:20:56.969Z,439.00
2023-06-30T08:21:57.045Z,461.00
2023-06-30T08:22:57.033Z,463.00
2023-06-30T08:23:57.123Z,495.00
2023-06-30T08:24:57.211Z,502.00
2023-06-30T08:25:57.239Z,500.00
2023-06-30T08:26:57.277Z,500.00
2023-06-30T08:27:57.269Z,502.00
2023-06-30T08:28:57.312Z,500.00
2023-06-30T08:29:57.360Z,520.00
2023-06-30T08:30:57.837Z,525.00
2023-06-30T08:31:57.340Z,528.00
2023-06-30T08:32:57.623Z,538.00
2023-06-30T08:33:57.361Z,580.00
2023-06-30T08:34:57.353Z,563.00
2023-06-30T08:35:57.329Z,582.00
2023-06-30T08:36:57.411Z,541.00
2023-06-30T08:37:57.434Z,525.00
2023-06-30T08:38:57.485Z,500.00
2023-06-30T08:39:57.594Z,520.00
2023-06-30T08:40:57.640Z,533.00
2023-06-30T08:41:57.710Z,540.00
2023-06-30T08:42:57.758Z,494.00
2023-06-30T08:43:57.798Z,500.00
2023-06-30T08:44:57.911Z,508.00
2023-06-30T08:45:57.920Z,497.00
2023-06-30T08:46:58.021Z,517.00
2023-06-30T08:47:58.122Z,525.00
2023-06-30T08:48:58.102Z,529.00
2023-06-30T08:49:58.200Z,519.00
2023-06-30T08:50:58.233Z,492.00
2023-06-30T08:51:58.221Z,508.00
2023-06-30T08:52:58.265Z,504.00
2023-06-30T08:53:58.275Z,523.00
2023-06-30T08:54:58.376Z,539.00
2023-06-30T08:55:58.399Z,552.00
2023-06-30T08:56:58.422Z,582.00
2023-06-30T08:58:00.592Z,565.00
2023-06-30T08:58:59.461Z,567.00
2023-06-30T08:59:58.467Z,574.00
2023-06-30T09:00:58.597Z,588.00
2023-06-30T09:01:58.521Z,621.00
2023-06-30T09:02:58.548Z,659.00
2023-06-30T09:03:58.506Z,665.00
2023-06-30T09:04:58.461Z,726.00
2023-06-30T09:05:58.466Z,702.00
2023-06-30T09:07:00.511Z,656.00
2023-06-30T09:07:58.406Z,643.00
2023-06-30T09:08:58.435Z,632.00
2023-06-30T09:09:58.382Z,640.00
2023-06-30T09:10:58.408Z,619.00
2023-06-30T09:11:58.371Z,653.00
2023-06-30T09:12:58.384Z,642.00
2023-06-30T09:13:58.342Z,651.00
2023-06-30T09:14:58.393Z,654.00
2023-06-30T09:15:58.380Z,713.00
2023-06-30T09:16:58.489Z,666.00
2023-06-30T09:17:58.381Z,697.00
2023-06-30T09:18:58.343Z,720.00
2023-06-30T09:19:58.328Z,677.00
2023-06-30T09:20:58.352Z,688.00
2023-06-30T09:21:58.333Z,721.00
2023-06-30T09:22:58.365Z,718.00
2023-06-30T09:23:58.322Z,739.00
2023-06-30T09:24:58.286Z,758.00
2023-06-30T09:25:58.365Z,790.00
2023-06-30T09:26:58.269Z,808.00
2023-06-30T09:27:58.281Z,830.00
2023-06-30T09:28:58.290Z,779.00
2023-06-30T09:29:58.249Z,788.00
2023-06-30T09:30:58.308Z,791.00
2023-06-30T09:32:21.042Z,500.00
2023-06-30T09:33:20.961Z,500.00
2023-06-30T09:34:21.011Z,500.00
2023-06-30T09:35:20.989Z,500.00
2023-06-30T09:36:20.936Z,500.00
2023-06-30T09:37:20.952Z,508.00
2023-06-30T09:38:20.954Z,501.00
2023-06-30T09:39:21.009Z,516.00
2023-06-30T09:40:20.936Z,525.00
2023-06-30T09:41:20.942Z,498.00
2023-06-30T09:42:20.923Z,527.00
2023-06-30T09:43:20.935Z,525.00
2023-06-30T09:44:20.916Z,520.00
2023-06-30T09:45:20.933Z,531.00
2023-06-30T09:46:20.970Z,502.00
2023-06-30T09:47:20.974Z,501.00
2023-06-30T09:48:20.960Z,502.00
2023-06-30T09:49:20.874Z,549.00
2023-06-30T09:50:20.883Z,534.00
2023-06-30T09:51:20.831Z,500.00
2023-06-30T09:52:20.893Z,506.00
2023-06-30T09:53:20.901Z,527.00
2023-06-30T09:54:28.844Z,591.00
2023-06-30T09:55:21.837Z,592.00
2023-06-30T09:56:21.150Z,595.00
2023-06-30T09:57:20.812Z,601.00
2023-06-30T09:58:20.814Z,609.00
2023-06-30T09:59:20.836Z,610.00
2023-06-30T10:00:34.496Z,624.00
2023-06-30T10:01:22.270Z,621.00
2023-06-30T10:02:20.830Z,618.00
2023-06-30T10:03:20.883Z,610.00
2023-06-30T10:04:20.810Z,621.00
2023-06-30T10:05:20.773Z,616.00
2023-06-30T10:06:21.201Z,624.00
2023-06-30T10:07:20.855Z,589.00
2023-06-30T10:08:20.757Z,617.00
2023-06-30T10:09:20.744Z,625.00
2023-06-30T10:10:20.737Z,640.00
2023-06-30T10:11:20.770Z,632.00
2023-06-30T10:12:20.727Z,612.00
2023-06-30T10:13:20.743Z,577.00
2023-06-30T10:14:20.731Z,578.00
2023-06-30T10:15:20.715Z,603.00
2023-06-30T10:16:20.704Z,592.00
2023-06-30T10:17:20.726Z,584.00
2023-06-30T10:18:20.752Z,603.00
2023-06-30T10:19:20.670Z,634.00
2023-06-30T10:20:23.690Z,648.00
2023-06-30T10:21:21.662Z,650.00
2023-06-30T10:22:20.658Z,657.00
2023-06-30T10:23:20.821Z,649.00
2023-06-30T10:24:20.664Z,654.00
2023-06-30T10:25:20.667Z,714.00
2023-06-30T10:26:20.721Z,756.00
2023-06-30T10:27:20.613Z,708.00
2023-06-30T10:28:20.666Z,731.00
2023-06-30T10:29:20.637Z,692.00
2023-06-30T10:30:20.603Z,722.00
2023-06-30T10:31:20.686Z,776.00
2023-06-30T10:32:20.605Z,828.00
2023-06-30T10:33:20.690Z,849.00
2023-06-30T10:34:20.600Z,873.00
2023-06-30T10:35:20.591Z,813.00
2023-06-30T10:36:20.571Z,849.00
2023-06-30T10:37:20.576Z,885.00
2023-06-30T10:38:20.578Z,896.00
2023-06-30T10:39:20.554Z,906.00
2023-06-30T10:40:20.610Z,894.00
2023-06-30T10:41:20.868Z,917.00
2023-06-30T10:42:20.555Z,924.00
2023-06-30T10:43:20.534Z,907.00
2023-06-30T10:44:20.543Z,657.00
2023-06-30T10:45:20.516Z,654.00
2023-06-30T10:46:20.566Z,648.00
2023-06-30T10:47:20.519Z,633.00
2023-06-30T10:48:20.515Z,630.00
2023-06-30T10:49:20.523Z,647.00
2023-06-30T10:50:20.519Z,634.00
2023-06-30T10:51:20.488Z,622.00
2023-06-30T10:52:20.487Z,617.00
2023-06-30T10:53:20.509Z,602.00
2023-06-30T10:54:20.523Z,589.00
2023-06-30T10:55:20.459Z,576.00
2023-06-30T10:56:20.447Z,570.00
2023-06-30T10:57:20.483Z,559.00
2023-06-30T10:58:20.496Z,550.00
2023-06-30T10:59:20.544Z,545.00
2023-06-30T11:00:20.516Z,523.00
2023-06-30T11:01:20.563Z,524.00
2023-06-30T11:02:20.604Z,513.00
2023-06-30T11:03:20.709Z,505.00
2023-06-30T11:04:20.756Z,503.00
2023-06-30T11:05:20.638Z,502.00
2023-06-30T11:06:20.697Z,500.00
2023-06-30T11:07:20.722Z,501.00
2023-06-30T11:08:20.659Z,502.00
2023-06-30T11:09:20.714Z,500.00
2023-06-30T11:10:20.729Z,500.00
2023-06-30T11:11:20.776Z,500.00
2023-06-30T11:12:20.777Z,500.00
2023-06-30T11:13:20.802Z,503.00
2023-06-30T11:14:20.834Z,500.00
2023-06-30T11:15:20.862Z,503.00
2023-06-30T11:16:20.869Z,502.00
2023-06-30T11:17:20.933Z,500.00
2023-06-30T11:18:20.977Z,500.00
2023-06-30T11:19:20.975Z,502.00
2023-06-30T11:20:20.943Z,501.00
2023-06-30T11:21:20.984Z,506.00
2023-06-30T11:22:20.967Z,500.00
2023-06-30T11:23:21.685Z,502.00
2023-06-30T11:24:21.027Z,500.00
2023-06-30T11:25:21.036Z,502.00
2023-06-30T11:26:21.039Z,500.00
2023-06-30T11:27:21.081Z,500.00
2023-06-30T11:28:21.077Z,504.00
2023-06-30T11:29:21.185Z,502.00
2023-06-30T11:30:21.169Z,503.00
2023-06-30T11:31:21.310Z,500.00
2023-06-30T11:32:21.191Z,500.00
2023-06-30T11:33:21.223Z,500.00
2023-06-30T11:34:21.249Z,500.00
2023-06-30T11:35:21.325Z,501.00
2023-06-30T11:36:21.725Z,499.00
2023-06-30T11:37:21.357Z,504.00
2023-06-30T11:38:21.393Z,501.00
2023-06-30T11:39:21.392Z,505.00
2023-06-30T11:40:21.396Z,506.00
2023-06-30T11:41:21.859Z,500.00
2023-06-30T11:42:21.479Z,500.00
2023-06-30T11:43:21.487Z,500.00
2023-06-30T11:44:21.481Z,500.00
2023-06-30T11:45:21.533Z,500.00
2023-06-30T11:46:21.752Z,505.00
2023-06-30T11:47:21.721Z,500.00
2023-06-30T11:48:21.595Z,501.00
2023-06-30T11:49:21.606Z,502.00
2023-06-30T11:50:21.689Z,500.00
2023-06-30T11:51:21.674Z,503.00
2023-06-30T11:52:21.682Z,500.00
2023-06-30T11:53:21.721Z,498.00
2023-06-30T11:54:21.755Z,502.00
2023-06-30T11:55:21.765Z,500.00
2023-06-30T11:56:22.244Z,501.00
2023-06-30T11:57:21.824Z,503.00
2023-06-30T11:58:21.831Z,503.00
2023-06-30T11:59:21.833Z,505.00
2023-06-30T12:00:21.869Z,500.00
2023-06-30T12:01:22.260Z,501.00
2023-06-30T12:02:22.013Z,500.00
2023-06-30T12:03:21.949Z,500.00
2023-06-30T12:04:22.085Z,506.00
2023-06-30T12:05:22.029Z,509.00
2023-06-30T12:06:22.233Z,521.00
2023-06-30T12:07:22.083Z,513.00
2023-06-30T12:08:22.095Z,516.00
2023-06-30T12:09:22.112Z,523.00
2023-06-30T12:10:22.118Z,525.00
2023-06-30T12:11:22.228Z,513.00
2023-06-30T12:12:22.186Z,509.00
2023-06-30T12:13:22.246Z,504.00
2023-06-30T12:14:22.260Z,503.00
2023-06-30T12:15:22.285Z,500.00
2023-06-30T12:16:22.417Z,504.00
2023-06-30T12:17:22.339Z,502.00
2023-06-30T12:18:22.353Z,506.00
2023-06-30T12:19:22.417Z,502.00
2023-06-30T12:20:22.479Z,502.00
2023-06-30T12:21:22.429Z,500.00
2023-06-30T12:22:22.470Z,502.00
2023-06-30T12:23:22.472Z,500.00
2023-06-30T12:24:22.558Z,501.00
2023-06-30T12:25:22.529Z,507.00
2023-06-30T12:26:22.585Z,510.00
2023-06-30T12:27:22.588Z,510.00
2023-06-30T12:28:22.609Z,511.00
2023-06-30T12:29:22.626Z,501.00
2023-06-30T12:30:22.680Z,503.00
2023-06-30T12:31:22.703Z,500.00
2023-06-30T12:32:22.755Z,507.00
2023-06-30T12:33:22.718Z,501.00
2023-06-30T12:34:22.784Z,510.00
2023-06-30T12:35:22.761Z,527.00
2023-06-30T12:36:23.260Z,524.00
2023-06-30T12:37:22.880Z,532.00
2023-06-30T12:38:22.954Z,538.00
2023-06-30T12:39:22.939Z,528.00
2023-06-30T12:40:22.946Z,510.00
2023-06-30T12:41:23.006Z,501.00
2023-06-30T12:42:23.040Z,510.00
2023-06-30T12:43:23.054Z,502.00
2023-06-30T12:44:23.020Z,500.00
2023-06-30T12:45:23.093Z,505.00
2023-06-30T12:46:23.172Z,503.00
2023-06-30T12:47:23.263Z,501.00
2023-06-30T12:48:23.184Z,504.00
2023-06-30T12:49:23.189Z,512.00
2023-06-30T12:50:23.820Z,500.00
2023-06-30T12:51:23.268Z,504.00
2023-06-30T12:52:23.256Z,530.00
2023-06-30T12:53:23.308Z,528.00
2023-06-30T12:54:23.353Z,530.00
2023-06-30T12:55:23.380Z,522.00
2023-06-30T12:56:23.423Z,526.00
2023-06-30T12:57:23.401Z,516.00
2023-06-30T12:58:23.810Z,522.00
2023-06-30T12:59:23.493Z,529.00
2023-06-30T13:00:23.561Z,528.00
2023-06-30T13:01:30.837Z,521.00
2023-06-30T13:02:23.557Z,521.00
2023-06-30T13:03:23.679Z,522.00
2023-06-30T13:04:23.849Z,522.00
2023-06-30T13:05:23.512Z,525.00
2023-06-30T13:06:23.782Z,519.00
2023-06-30T13:07:23.627Z,525.00
2023-06-30T13:08:23.514Z,526.00
2023-06-30T13:09:23.531Z,512.00
2023-06-30T13:10:23.849Z,523.00
2023-06-30T13:11:23.823Z,524.00
2023-06-30T13:12:23.459Z,526.00
2023-06-30T13:13:23.500Z,526.00
2023-06-30T13:14:23.457Z,533.00
2023-06-30T13:15:23.453Z,533.00
2023-06-30T13:16:23.873Z,532.00
2023-06-30T13:17:23.477Z,524.00
2023-06-30T13:18:23.433Z,525.00
2023-06-30T13:19:23.429Z,514.00
2023-06-30T13:20:23.459Z,519.00
2023-06-30T13:21:23.775Z,516.00
2023-06-30T13:22:23.419Z,511.00
2023-06-30T13:23:32.279Z,508.00
2023-06-30T13:24:26.426Z,509.00
2023-06-30T13:25:23.384Z,509.00
2023-06-30T13:26:23.806Z,511.00
2023-06-30T13:27:23.404Z,512.00
2023-06-30T13:28:23.427Z,510.00
2023-06-30T13:29:23.394Z,514.00
2023-06-30T13:30:23.731Z,503.00
2023-06-30T13:31:23.826Z,505.00
2023-06-30T13:32:23.427Z,506.00
2023-06-30T13:33:23.304Z,503.00
2023-06-30T13:34:23.314Z,500.00
2023-06-30T13:35:23.390Z,500.00
2023-06-30T13:36:24.242Z,505.00
2023-06-30T13:37:23.311Z,506.00
2023-06-30T13:38:23.311Z,513.00
2023-06-30T13:39:23.325Z,513.00
2023-06-30T13:40:23.278Z,508.00
2023-06-30T13:41:23.812Z,520.00
2023-06-30T13:42:23.319Z,523.00
2023-06-30T13:43:23.271Z,523.00
2023-06-30T13:44:23.273Z,513.00
2023-06-30T13:45:23.254Z,503.00
2023-06-30T13:46:23.344Z,515.00
2023-06-30T13:47:23.407Z,525.00
2023-06-30T13:48:23.338Z,512.00
2023-06-30T13:49:23.346Z,528.00
2023-06-30T13:50:23.416Z,526.00
2023-06-30T13:51:23.783Z,526.00
2023-06-30T13:52:23.483Z,526.00
2023-06-30T13:53:24.082Z,532.00
2023-06-30T13:54:23.550Z,530.00
2023-06-30T13:55:23.593Z,529.00
2023-06-30T13:56:23.645Z,528.00
2023-06-30T13:57:23.711Z,537.00
2023-06-30T13:58:23.726Z,535.00
2023-06-30T13:59:23.763Z,535.00
2023-06-30T14:00:23.764Z,536.00
2023-06-30T14:01:23.865Z,541.00
2023-06-30T14:02:23.887Z,551.00
2023-06-30T14:03:23.915Z,556.00
2023-06-30T14:04:23.977Z,541.00
2023-06-30T14:05:24.061Z,550.00
2023-06-30T14:06:24.015Z,548.00
2023-06-30T14:07:24.060Z,548.00
2023-06-30T14:08:24.102Z,548.00
2023-06-30T14:09:24.139Z,548.00
2023-06-30T14:10:24.241Z,550.00
2023-06-30T14:11:24.322Z,552.00
2023-06-30T14:12:24.264Z,550.00
2023-06-30T14:13:24.333Z,551.00
2023-06-30T14:14:24.357Z,545.00
2023-06-30T14:15:24.450Z,548.00
2023-06-30T14:16:24.889Z,545.00
2023-06-30T14:17:24.510Z,547.00
2023-06-30T14:18:24.545Z,548.00
2023-06-30T14:19:24.595Z,546.00
2023-06-30T14:20:24.633Z,551.00
2023-06-30T14:21:24.802Z,556.00
2023-06-30T14:22:24.734Z,564.00
2023-06-30T14:23:24.811Z,568.00
2023-06-30T14:24:24.870Z,563.00
2023-06-30T14:25:24.945Z,569.00
2023-06-30T14:26:24.954Z,574.00
2023-06-30T14:27:25.059Z,575.00
2023-06-30T14:28:25.062Z,573.00
2023-06-30T14:29:25.193Z,576.00
2023-06-30T14:30:25.174Z,579.00
2023-06-30T14:31:25.281Z,583.00
2023-06-30T14:32:25.309Z,576.00
2023-06-30T14:33:25.284Z,580.00
2023-06-30T14:34:25.326Z,575.00
2023-06-30T14:35:25.391Z,576.00
2023-06-30T14:36:25.837Z,577.00
2023-06-30T14:37:25.472Z,579.00
2023-06-30T14:38:25.547Z,583.00
2023-06-30T14:39:25.607Z,582.00
2023-06-30T14:40:25.654Z,588.00
2023-06-30T14:41:25.877Z,596.00
2023-06-30T14:42:32.189Z,599.00
2023-06-30T14:43:26.745Z,599.00
2023-06-30T14:44:25.779Z,600.00
2023-06-30T14:45:25.712Z,602.00
2023-06-30T14:46:25.760Z,606.00
2023-06-30T14:47:25.788Z,610.00
2023-06-30T14:48:26.293Z,620.00
2023-06-30T14:49:25.712Z,627.00
2023-06-30T14:50:25.733Z,626.00
2023-06-30T14:51:25.821Z,630.00
2023-06-30T14:52:25.857Z,635.00
2023-06-30T14:53:25.860Z,631.00
2023-06-30T14:54:25.918Z,640.00
2023-06-30T14:55:25.963Z,643.00
2023-06-30T14:56:26.322Z,647.00
2023-06-30T14:57:26.182Z,649.00
2023-06-30T14:58:26.173Z,661.00
2023-06-30T14:59:26.200Z,682.00
2023-06-30T15:00:26.294Z,693.00
2023-06-30T15:01:26.810Z,702.00
2023-06-30T15:02:26.525Z,722.00
2023-06-30T15:03:26.541Z,729.00
2023-06-30T15:04:26.539Z,748.00
2023-06-30T15:05:26.563Z,774.00
2023-06-30T15:06:26.850Z,772.00
2023-06-30T15:07:26.671Z,812.00
2023-06-30T15:08:26.757Z,840.00
2023-06-30T15:09:26.800Z,845.00
2023-06-30T15:10:26.904Z,867.00
2023-06-30T15:11:27.349Z,882.00
2023-06-30T15:12:26.944Z,899.00
2023-06-30T15:13:27.023Z,928.00
2023-06-30T15:14:27.118Z,948.00
2023-06-30T15:15:27.111Z,961.00
2023-06-30T15:16:27.368Z,987.00
2023-06-30T15:17:27.217Z,1000.00
2023-06-30T15:18:27.237Z,1026.00
2023-06-30T15:19:27.302Z,1033.00
2023-06-30T15:20:27.308Z,1064.00
2023-06-30T15:21:27.388Z,1072.00
2023-06-30T15:22:27.431Z,1096.00
2023-06-30T15:23:27.476Z,1109.00
2023-06-30T15:24:27.558Z,1122.00
2023-06-30T15:25:27.794Z,1119.00
2023-06-30T15:26:27.867Z,1145.00
2023-06-30T15:27:27.763Z,1164.00
2023-06-30T15:28:27.804Z,1169.00
2023-06-30T15:29:27.824Z,1184.00
2023-06-30T15:30:27.898Z,1197.00
2023-06-30T15:31:27.983Z,1213.00
2023-06-30T15:32:28.064Z,1229.00
2023-06-30T15:33:28.112Z,1226.00
2023-06-30T15:34:28.130Z,1239.00
2023-06-30T15:35:28.199Z,1246.00
2023-06-30T15:36:28.215Z,1259.00
2023-06-30T15:37:28.291Z,1265.00
2023-06-30T15:38:28.368Z,1275.00
2023-06-30T15:39:28.409Z,1298.00
2023-06-30T15:40:28.446Z,1330.00
2023-06-30T15:41:28.519Z,1349.00
2023-06-30T15:42:28.555Z,1373.00
2023-06-30T15:43:28.602Z,1376.00
2023-06-30T15:44:28.683Z,1401.00
2023-06-30T15:45:28.754Z,1396.00
2023-06-30T15:46:28.856Z,1412.00
2023-06-30T15:47:28.897Z,1421.00
2023-06-30T15:48:28.917Z,1429.00
2023-06-30T15:49:28.987Z,1442.00
2023-06-30T15:50:29.044Z,1441.00
2023-06-30T15:51:29.342Z,1458.00